createdAt,value
2023-02-22T00:00:48.892Z,41.65
2023-02-22T00:05:47.080Z,36.45
2023-02-22T00:10:42.140Z,33.92
2023-02-22T00:13:11.518Z,30.60
2023-02-22T00:15:41.498Z,32.70
2023-02-22T00:18:12.053Z,46.80
2023-02-22T00:20:40.093Z,29.42
2023-02-22T00:23:09.694Z,48.58
2023-02-22T00:25:37.144Z,48.50
2023-02-22T00:28:05.074Z,39.38
2023-02-22T00:30:33.759Z,42.00
2023-02-22T00:33:00.970Z,41.90
2023-02-22T00:35:30.041Z,29.33
2023-02-22T00:37:59.594Z,43.75
2023-02-22T00:42:55.112Z,54.95
2023-02-22T00:45:24.338Z,43.50
2023-02-22T00:47:51.830Z,46.53
2023-02-22T00:50:19.534Z,54.55
2023-02-22T00:52:46.404Z,37.45
2023-02-22T00:55:22.746Z,30.10
2023-02-22T00:57:50.095Z,46.78
2023-02-22T01:00:25.697Z,30.48
2023-02-22T01:02:52.641Z,37.78
2023-02-22T01:05:23.092Z,33.10
2023-02-22T01:07:50.489Z,35.20
2023-02-22T01:10:20.553Z,31.67
2023-02-22T01:12:48.571Z,49.58
2023-02-22T01:15:17.263Z,34.05
2023-02-22T01:17:44.135Z,32.72
2023-02-22T01:20:14.843Z,51.03
2023-02-22T01:22:47.610Z,38.10
2023-02-22T01:25:18.982Z,37.38
2023-02-22T01:27:45.958Z,43.80
2023-02-22T01:30:15.140Z,34.97
2023-02-22T01:32:42.984Z,32.05
2023-02-22T01:35:18.475Z,45.17
2023-02-22T01:37:45.866Z,48.58
2023-02-22T01:40:26.455Z,31.80
2023-02-22T01:42:55.550Z,49.78
2023-02-22T01:45:34.286Z,35.20
2023-02-22T01:48:16.198Z,34.22
2023-02-22T01:51:00.097Z,50.90
2023-02-22T01:53:36.071Z,35.08
2023-02-22T01:56:04.564Z,45.08
2023-02-22T01:58:34.832Z,32.45
2023-02-22T02:01:01.821Z,46.85
2023-02-22T02:03:35.916Z,44.83
2023-02-22T02:06:06.448Z,35.50
2023-02-22T02:09:10.796Z,39.55
2023-02-22T02:11:40.465Z,39.42
2023-02-22T02:14:08.819Z,46.83
2023-02-22T02:16:40.996Z,39.38
2023-02-22T02:19:17.079Z,37.67
2023-02-22T02:22:19.200Z,35.88
2023-02-22T02:25:10.888Z,51.55
2023-02-22T02:27:55.858Z,64.78
2023-02-22T02:30:31.765Z,38.53
2023-02-22T02:33:06.567Z,35.92
2023-02-22T02:35:41.238Z,40.60
2023-02-22T02:38:29.049Z,35.05
2023-02-22T02:41:15.396Z,41.75
2023-02-22T02:43:47.262Z,40.20
2023-02-22T02:46:26.537Z,45.25
2023-02-22T02:49:03.799Z,41.55
2023-02-22T02:51:50.156Z,64.55
2023-02-22T02:54:17.927Z,60.13
2023-02-22T02:56:46.475Z,46.88
2023-02-22T02:59:39.870Z,64.87
2023-02-22T03:02:24.652Z,61.90
2023-02-22T03:05:31.840Z,37.88
2023-02-22T03:08:07.817Z,45.67
2023-02-22T03:10:56.947Z,37.88
2023-02-22T03:13:45.558Z,40.47
2023-02-22T03:16:32.381Z,48.17
2023-02-22T03:19:23.485Z,61.08
2023-02-22T03:24:28.112Z,76.75
2023-02-22T03:27:09.951Z,41.28
2023-02-22T03:29:42.768Z,48.65
2023-02-22T03:32:16.127Z,88.80
2023-02-22T03:34:47.936Z,65.00
2023-02-22T03:37:19.356Z,66.47
2023-02-22T03:39:47.975Z,45.35
2023-02-22T03:42:37.643Z,71.30
2023-02-22T03:45:07.016Z,76.68
2023-02-22T03:47:51.314Z,56.47
2023-02-22T03:50:22.678Z,54.83
2023-02-22T03:52:49.653Z,74.10
2023-02-22T03:55:17.723Z,61.13
2023-02-22T03:57:51.823Z,59.58
2023-02-22T04:00:25.326Z,74.45
2023-02-22T04:02:52.278Z,60.72
2023-02-22T04:05:19.581Z,64.82
2023-02-22T04:07:46.450Z,58.63
2023-02-22T04:10:15.352Z,71.72
2023-02-22T04:12:42.210Z,64.13
2023-02-22T04:15:11.850Z,73.32
2023-02-22T04:17:38.661Z,66.55
2023-02-22T04:20:07.068Z,71.05
2023-02-22T04:22:34.046Z,54.28
2023-02-22T04:25:00.865Z,73.55
2023-02-22T04:27:27.737Z,65.88
2023-02-22T04:29:54.605Z,67.65
2023-02-22T04:32:21.514Z,58.92
2023-02-22T04:34:48.431Z,78.10
2023-02-22T04:37:15.442Z,69.35
2023-02-22T04:39:42.413Z,66.28
2023-02-22T04:42:09.275Z,78.35
2023-02-22T04:44:36.076Z,58.83
2023-02-22T04:47:02.931Z,62.72
2023-02-22T04:49:29.774Z,75.47
2023-02-22T04:51:56.634Z,72.57
2023-02-22T04:54:23.548Z,75.93
2023-02-22T04:56:50.480Z,83.70
2023-02-22T04:59:17.483Z,63.72
2023-02-22T05:01:44.396Z,82.32
2023-02-22T05:04:11.308Z,88.95
2023-02-22T05:06:38.183Z,78.97
2023-02-22T05:09:05.057Z,70.65
2023-02-22T05:11:31.987Z,74.25
2023-02-22T05:13:58.844Z,81.13
2023-02-22T05:16:26.457Z,77.32
2023-02-22T05:18:53.461Z,83.22
2023-02-22T05:21:20.362Z,82.28
2023-02-22T05:23:47.323Z,84.25
2023-02-22T05:26:14.186Z,84.10
2023-02-22T05:28:41.054Z,88.03
2023-02-22T05:31:09.127Z,86.93
2023-02-22T05:33:36.478Z,84.13
2023-02-22T05:36:03.556Z,82.47
2023-02-22T05:38:30.384Z,85.50
2023-02-22T05:40:57.154Z,74.93
2023-02-22T05:43:24.029Z,92.20
2023-02-22T05:45:50.983Z,82.53
2023-02-22T05:48:17.824Z,98.55
2023-02-22T05:50:44.680Z,82.18
2023-02-22T05:53:11.536Z,76.95
2023-02-22T05:55:38.351Z,77.45
2023-02-22T05:58:05.911Z,94.30
2023-02-22T06:00:32.960Z,91.82
2023-02-22T06:03:03.322Z,85.72
2023-02-22T06:05:30.696Z,92.72
2023-02-22T06:07:58.493Z,94.68
2023-02-22T06:10:25.994Z,87.45
2023-02-22T06:12:53.635Z,80.45
2023-02-22T06:15:22.560Z,76.32
2023-02-22T06:17:50.087Z,90.95
2023-02-22T06:20:19.382Z,80.97
2023-02-22T06:22:54.683Z,89.57
2023-02-22T06:25:24.501Z,84.20
2023-02-22T06:27:51.650Z,78.18
2023-02-22T06:30:22.667Z,87.43
2023-02-22T06:32:49.868Z,89.13
2023-02-22T06:35:17.469Z,79.53
2023-02-22T06:37:44.474Z,85.88
2023-02-22T06:40:11.646Z,86.65
2023-02-22T06:42:39.399Z,94.90
2023-02-22T06:45:07.463Z,90.65
2023-02-22T06:47:39.344Z,88.00
2023-02-22T06:50:06.622Z,86.90
2023-02-22T06:52:33.553Z,97.97
2023-02-22T06:55:00.687Z,98.65
2023-02-22T06:57:27.525Z,98.45
2023-02-22T06:59:54.356Z,79.28
2023-02-22T07:02:21.182Z,90.07
2023-02-22T07:04:48.031Z,104.57
2023-02-22T07:07:14.895Z,88.25
2023-02-22T07:09:41.951Z,95.65
2023-02-22T07:12:09.277Z,92.25
2023-02-22T07:14:36.174Z,82.40
2023-02-22T07:17:03.419Z,95.80
2023-02-22T07:19:30.311Z,88.72
2023-02-22T07:21:59.358Z,93.10
2023-02-22T07:24:28.464Z,90.95
2023-02-22T07:26:55.516Z,78.40
2023-02-22T07:29:22.669Z,88.72
2023-02-22T07:31:49.728Z,87.38
2023-02-22T07:34:16.701Z,86.15
2023-02-22T07:36:43.682Z,97.22
2023-02-22T07:39:11.188Z,88.05
2023-02-22T07:41:38.065Z,82.95
2023-02-22T07:44:05.201Z,77.78
2023-02-22T07:46:32.087Z,101.05
2023-02-22T07:48:58.959Z,103.47
2023-02-22T07:51:27.018Z,108.93
2023-02-22T07:53:53.920Z,93.68
2023-02-22T07:56:20.772Z,97.05
2023-02-22T07:58:47.699Z,106.88
2023-02-22T08:01:14.657Z,114.97
2023-02-22T08:03:42.543Z,88.20
2023-02-22T08:06:10.945Z,115.75
2023-02-22T08:08:38.217Z,106.87
2023-02-22T08:11:05.725Z,100.53
2023-02-22T08:13:33.018Z,120.95
2023-02-22T08:16:00.082Z,105.82
2023-02-22T08:18:27.058Z,121.90
2023-02-22T08:20:54.937Z,83.65
2023-02-22T08:23:25.641Z,106.82
2023-02-22T08:25:52.945Z,102.07
2023-02-22T08:28:23.391Z,91.15
2023-02-22T08:30:51.172Z,135.50
2023-02-22T08:33:19.725Z,112.40
2023-02-22T08:35:49.726Z,101.57
2023-02-22T08:38:29.519Z,128.13
2023-02-22T08:40:57.156Z,119.18
2023-02-22T08:43:24.254Z,87.50
2023-02-22T08:45:52.326Z,102.80
2023-02-22T08:48:20.341Z,103.55
2023-02-22T08:50:47.206Z,102.50
2023-02-22T08:53:16.358Z,150.82
2023-02-22T08:55:43.615Z,141.68
2023-02-22T08:58:10.905Z,92.68
2023-02-22T09:00:39.388Z,81.90
2023-02-22T09:03:13.580Z,104.90
2023-02-22T09:05:41.779Z,102.68
2023-02-22T09:08:08.794Z,77.70
2023-02-22T09:10:36.450Z,83.07
2023-02-22T09:13:04.147Z,98.50
2023-02-22T09:15:32.080Z,106.43
2023-02-22T09:18:00.567Z,75.40
2023-02-22T09:20:28.108Z,73.22
2023-02-22T09:22:55.502Z,77.07
2023-02-22T09:25:23.237Z,78.45
2023-02-22T09:27:52.060Z,88.07
2023-02-22T09:30:28.168Z,116.03
2023-02-22T09:32:58.365Z,76.78
2023-02-22T09:35:27.414Z,74.30
2023-02-22T09:37:56.827Z,77.43
2023-02-22T09:40:29.573Z,65.03
2023-02-22T09:43:35.810Z,75.70
2023-02-22T09:46:29.612Z,78.40
2023-02-22T09:49:32.299Z,66.93
2023-02-22T09:52:05.160Z,81.80
2023-02-22T09:54:40.981Z,73.03
2023-02-22T09:57:13.633Z,72.43
2023-02-22T09:59:53.524Z,63.05
2023-02-22T10:02:35.098Z,65.03
2023-02-22T10:05:29.398Z,62.97
2023-02-22T10:08:05.882Z,69.57
2023-02-22T10:10:39.353Z,64.75
2023-02-22T10:13:39.257Z,78.18
2023-02-22T10:16:06.210Z,64.30
2023-02-22T10:18:39.172Z,61.30
2023-02-22T10:21:19.516Z,63.28
2023-02-22T10:26:20.467Z,59.65
2023-02-22T10:29:09.304Z,57.33
2023-02-22T10:31:44.098Z,67.10
2023-02-22T10:34:15.776Z,74.00
2023-02-22T10:36:48.984Z,60.47
2023-02-22T10:39:31.560Z,73.68
2023-02-22T10:42:06.112Z,58.88
2023-02-22T10:44:37.330Z,64.03
2023-02-22T10:47:08.269Z,79.07
2023-02-22T10:49:41.234Z,58.38
2023-02-22T10:52:22.482Z,60.33
2023-02-22T10:54:51.969Z,50.53
2023-02-22T10:59:52.013Z,55.38
2023-02-22T11:02:23.595Z,47.78
2023-02-22T11:04:53.054Z,60.72
2023-02-22T11:10:03.313Z,61.58
2023-02-22T11:12:38.734Z,64.32
2023-02-22T11:15:18.863Z,62.97
2023-02-22T11:17:47.469Z,64.18
2023-02-22T11:20:25.396Z,66.87
2023-02-22T11:22:54.891Z,56.55
2023-02-22T11:27:52.946Z,49.38
2023-02-22T11:30:27.097Z,59.95
2023-02-22T11:32:58.696Z,58.42
2023-02-22T11:35:28.310Z,61.13
2023-02-22T11:38:17.651Z,50.67
2023-02-22T11:40:45.665Z,49.03
2023-02-22T11:43:20.388Z,50.80
2023-02-22T11:46:08.350Z,53.58
2023-02-22T11:48:39.530Z,49.33
2023-02-22T11:51:14.463Z,51.88
2023-02-22T11:54:25.444Z,61.72
2023-02-22T11:56:55.904Z,58.28
2023-02-22T11:59:51.542Z,177.35
2023-02-22T12:02:30.733Z,57.47
2023-02-22T12:05:09.601Z,85.03
2023-02-22T12:08:17.393Z,57.05
2023-02-22T12:11:18.409Z,153.90
2023-02-22T12:14:01.869Z,141.35
2023-02-22T12:17:03.448Z,62.53
2023-02-22T12:19:41.450Z,64.90
2023-02-22T12:22:26.687Z,86.60
2023-02-22T12:25:09.860Z,65.65
2023-02-22T12:27:51.867Z,59.60
2023-02-22T12:30:23.968Z,57.20
2023-02-22T12:33:06.585Z,60.80
2023-02-22T12:35:50.403Z,50.08
2023-02-22T12:38:40.302Z,49.20
2023-02-22T12:41:27.068Z,54.67
2023-02-22T12:43:58.872Z,53.78
2023-02-22T12:46:40.151Z,49.10
2023-02-22T12:50:05.530Z,43.67
2023-02-22T12:52:44.168Z,46.65
2023-02-22T12:55:45.794Z,40.97
2023-02-22T12:58:26.975Z,46.47
2023-02-22T13:01:17.831Z,44.22
2023-02-22T13:03:45.125Z,38.17
2023-02-22T13:06:28.120Z,37.75
2023-02-22T13:09:19.763Z,41.70
2023-02-22T13:11:55.441Z,33.65
2023-02-22T13:14:40.545Z,45.38
2023-02-22T13:17:41.429Z,36.55
2023-02-22T13:20:34.236Z,38.40
2023-02-22T13:23:15.067Z,38.97
2023-02-22T13:25:49.933Z,39.22
2023-02-22T13:28:24.159Z,35.35
2023-02-22T13:31:19.622Z,36.05
2023-02-22T13:34:16.772Z,37.80
2023-02-22T13:37:04.819Z,37.78
2023-02-22T13:39:54.681Z,34.42
2023-02-22T13:42:38.084Z,35.42
2023-02-22T13:45:35.711Z,32.17
2023-02-22T13:48:34.822Z,31.70
2023-02-22T13:51:13.765Z,31.65
2023-02-22T13:53:49.219Z,34.28
2023-02-22T13:56:19.059Z,30.77
2023-02-22T13:58:57.085Z,32.88
2023-02-22T14:01:46.254Z,32.78
2023-02-22T14:04:28.507Z,31.90
2023-02-22T14:07:25.968Z,32.17
2023-02-22T14:09:56.140Z,30.60
2023-02-22T14:12:34.873Z,31.33
2023-02-22T14:15:26.813Z,31.70
2023-02-22T14:18:01.981Z,29.75
2023-02-22T14:20:32.323Z,30.20
2023-02-22T14:23:30.130Z,30.58
2023-02-22T14:26:10.137Z,30.25
2023-02-22T14:28:43.019Z,28.60
2023-02-22T14:31:33.419Z,29.10
2023-02-22T14:34:40.225Z,32.40
2023-02-22T14:37:12.711Z,29.25
2023-02-22T14:40:12.865Z,31.10
2023-02-22T14:42:49.058Z,35.38
2023-02-22T14:45:30.100Z,30.92
2023-02-22T14:48:24.939Z,31.50
2023-02-22T14:50:53.807Z,30.63
2023-02-22T14:53:44.316Z,30.00
2023-02-22T14:56:36.320Z,28.30
2023-02-22T14:59:16.833Z,32.20
2023-02-22T15:02:01.756Z,29.67
2023-02-22T15:07:15.989Z,33.67
2023-02-22T15:09:46.585Z,30.92
2023-02-22T15:12:20.556Z,28.92
2023-02-22T15:14:47.828Z,31.88
2023-02-22T15:17:20.833Z,29.77
2023-02-22T15:19:48.909Z,30.40
2023-02-22T15:22:25.115Z,33.10
2023-02-22T15:25:12.218Z,32.08
2023-02-22T15:27:47.804Z,30.58
2023-02-22T15:30:32.535Z,34.17
2023-02-22T15:33:12.194Z,32.35
2023-02-22T15:35:39.636Z,30.48
2023-02-22T15:38:10.620Z,32.08
2023-02-22T15:40:42.895Z,35.13
2023-02-22T15:43:18.887Z,34.30
2023-02-22T15:45:46.469Z,33.05
2023-02-22T15:48:15.844Z,32.50
2023-02-22T15:53:30.730Z,36.03
2023-02-22T15:56:05.789Z,36.50
2023-02-22T15:58:32.852Z,33.00
2023-02-22T16:01:12.348Z,38.50
2023-02-22T16:03:46.349Z,33.70
2023-02-22T16:06:33.621Z,32.33
2023-02-22T16:09:10.526Z,35.88
2023-02-22T16:11:43.238Z,33.55
2023-02-22T16:14:30.416Z,32.45
2023-02-22T16:17:29.764Z,29.98
2023-02-22T16:20:01.682Z,43.97
2023-02-22T16:22:36.136Z,33.67
2023-02-22T16:25:18.423Z,35.42
2023-02-22T16:28:01.642Z,37.20
2023-02-22T16:30:32.850Z,34.40
2023-02-22T16:33:05.506Z,40.47
2023-02-22T16:35:35.418Z,36.60
2023-02-22T16:38:05.329Z,38.45
2023-02-22T16:40:39.855Z,35.63
2023-02-22T16:43:10.420Z,36.85
2023-02-22T16:45:37.589Z,35.08
2023-02-22T16:48:21.443Z,36.42
2023-02-22T16:50:51.371Z,27.27
2023-02-22T16:53:21.240Z,36.05
2023-02-22T16:55:48.666Z,40.05
2023-02-22T16:58:17.519Z,29.90
2023-02-22T17:00:44.826Z,38.15
2023-02-22T17:03:17.212Z,34.97
2023-02-22T17:05:44.638Z,36.40
2023-02-22T17:08:11.667Z,33.17
2023-02-22T17:10:38.751Z,37.90
2023-02-22T17:13:21.797Z,34.20
2023-02-22T17:15:51.461Z,33.20
2023-02-22T17:18:23.602Z,34.08
2023-02-22T17:20:52.203Z,47.65
2023-02-22T17:23:19.889Z,35.45
2023-02-22T17:25:50.939Z,34.08
2023-02-22T17:28:18.280Z,32.72
2023-02-22T17:30:48.813Z,32.38
2023-02-22T17:33:19.164Z,34.70
2023-02-22T17:35:47.060Z,41.95
2023-02-22T17:38:18.539Z,37.70
2023-02-22T17:40:55.001Z,42.45
2023-02-22T17:43:22.009Z,37.47
2023-02-22T17:45:49.539Z,38.67
2023-02-22T17:48:17.660Z,37.97
2023-02-22T17:50:46.513Z,40.38
2023-02-22T17:53:13.584Z,43.28
2023-02-22T17:55:42.336Z,50.22
2023-02-22T17:58:19.950Z,41.85
2023-02-22T18:00:50.029Z,39.10
2023-02-22T18:03:25.697Z,58.75
2023-02-22T18:05:56.319Z,39.40
2023-02-22T18:08:24.428Z,47.33
2023-02-22T18:11:02.744Z,47.45
2023-02-22T18:13:29.647Z,50.38
2023-02-22T18:16:00.170Z,43.67
2023-02-22T18:18:27.438Z,42.17
2023-02-22T18:20:59.491Z,44.90
2023-02-22T18:23:29.205Z,45.22
2023-02-22T18:28:38.021Z,51.10
2023-02-22T18:31:16.311Z,47.30
2023-02-22T18:33:44.827Z,47.80
2023-02-22T18:36:12.608Z,41.10
2023-02-22T18:38:43.626Z,49.42
2023-02-22T18:41:16.239Z,48.03
2023-02-22T18:43:43.832Z,42.78
2023-02-22T18:46:19.680Z,46.30
2023-02-22T18:48:55.858Z,45.83
2023-02-22T18:51:23.675Z,44.80
2023-02-22T18:53:54.784Z,46.05
2023-02-22T18:56:22.213Z,45.05
2023-02-22T18:58:53.931Z,40.15
2023-02-22T19:01:22.617Z,42.90
2023-02-22T19:03:49.651Z,42.72
2023-02-22T19:06:18.422Z,44.15
2023-02-22T19:08:47.066Z,41.58
2023-02-22T19:11:20.021Z,47.23
2023-02-22T19:13:48.878Z,43.28
2023-02-22T19:16:20.166Z,46.40
2023-02-22T19:18:48.620Z,46.88
2023-02-22T19:21:16.397Z,45.78
2023-02-22T19:23:47.928Z,42.13
2023-02-22T19:26:20.791Z,46.63
2023-02-22T19:28:52.130Z,45.63
2023-02-22T19:31:20.951Z,45.10
2023-02-22T19:33:51.287Z,49.85
2023-02-22T19:36:20.103Z,41.92
2023-02-22T19:38:47.192Z,42.47
2023-02-22T19:41:18.444Z,41.83
2023-02-22T19:43:47.467Z,45.33
2023-02-22T19:46:17.767Z,41.90
2023-02-22T19:48:45.505Z,45.45
2023-02-22T19:51:15.199Z,47.15
2023-02-22T19:53:43.966Z,45.78
2023-02-22T19:56:27.044Z,44.05
2023-02-22T19:58:56.072Z,47.20
2023-02-22T20:01:26.617Z,51.13
2023-02-22T20:04:05.034Z,48.67
2023-02-22T20:06:34.973Z,43.42
2023-02-22T20:09:02.728Z,50.22
2023-02-22T20:11:30.689Z,47.30
2023-02-22T20:13:57.658Z,49.83
2023-02-22T20:16:24.610Z,52.20
2023-02-22T20:18:51.652Z,50.72
2023-02-22T20:21:20.087Z,46.63
2023-02-22T20:23:47.359Z,46.83
2023-02-22T20:26:22.579Z,51.33
2023-02-22T20:28:51.062Z,53.72
2023-02-22T20:31:19.613Z,53.15
2023-02-22T20:33:49.145Z,51.92
2023-02-22T20:36:18.393Z,56.58
2023-02-22T20:38:45.790Z,50.88
2023-02-22T20:41:16.443Z,50.67
2023-02-22T20:43:43.603Z,53.00
2023-02-22T20:46:10.559Z,54.47
2023-02-22T20:48:37.449Z,53.72
2023-02-22T20:51:09.061Z,56.17
2023-02-22T20:53:36.824Z,53.58
2023-02-22T20:56:04.531Z,52.75
2023-02-22T20:58:31.554Z,50.42
2023-02-22T21:01:05.120Z,49.10
2023-02-22T21:03:35.998Z,46.15
2023-02-22T21:06:06.329Z,50.65
2023-02-22T21:08:33.391Z,47.05
2023-02-22T21:11:00.591Z,53.55
2023-02-22T21:13:27.655Z,51.63
2023-02-22T21:15:54.623Z,53.30
2023-02-22T21:18:23.376Z,54.35
2023-02-22T21:20:51.925Z,53.83
2023-02-22T21:23:18.924Z,49.22
2023-02-22T21:25:53.244Z,48.75
2023-02-22T21:28:20.608Z,47.33
2023-02-22T21:30:47.758Z,52.70
2023-02-22T21:33:16.025Z,50.20
2023-02-22T21:35:50.396Z,53.22
2023-02-22T21:38:17.843Z,55.42
2023-02-22T21:40:47.935Z,51.72
2023-02-22T21:43:16.625Z,51.90
2023-02-22T21:45:43.698Z,56.70
2023-02-22T21:48:10.581Z,51.40
2023-02-22T21:50:38.288Z,49.03
2023-02-22T21:53:06.482Z,53.35
2023-02-22T21:55:33.912Z,54.25
2023-02-22T21:58:00.773Z,48.78
2023-02-22T22:00:31.715Z,48.95
2023-02-22T22:03:12.620Z,49.40
2023-02-22T22:05:40.247Z,54.63
2023-02-22T22:08:13.264Z,53.75
2023-02-22T22:10:40.131Z,52.50
2023-02-22T22:13:09.126Z,53.17
2023-02-22T22:15:37.347Z,51.15
2023-02-22T22:18:08.059Z,51.90
2023-02-22T22:20:38.328Z,49.00
2023-02-22T22:23:06.908Z,54.03
2023-02-22T22:25:38.082Z,49.33
2023-02-22T22:28:11.512Z,55.03
2023-02-22T22:30:38.587Z,51.38
2023-02-22T22:33:06.222Z,51.22
2023-02-22T22:35:33.575Z,58.28
2023-02-22T22:38:01.119Z,46.60
2023-02-22T22:40:28.448Z,53.30
2023-02-22T22:42:55.507Z,54.75
2023-02-22T22:45:22.916Z,51.22
2023-02-22T22:47:49.816Z,55.13
2023-02-22T22:50:27.589Z,52.15
2023-02-22T22:52:57.130Z,52.92
2023-02-22T22:57:53.646Z,52.20
2023-02-22T23:00:30.294Z,54.40
2023-02-22T23:02:57.385Z,55.70
2023-02-22T23:05:29.334Z,53.58
2023-02-22T23:07:57.452Z,52.90
2023-02-22T23:10:27.478Z,55.83
2023-02-22T23:12:56.528Z,56.63
2023-02-22T23:15:25.142Z,48.58
2023-02-22T23:17:56.263Z,53.23
2023-02-22T23:20:26.268Z,54.90
2023-02-22T23:22:55.164Z,53.80
2023-02-22T23:25:22.382Z,52.15
2023-02-22T23:27:49.633Z,65.50
2023-02-22T23:30:18.652Z,58.25
2023-02-22T23:32:46.678Z,61.08
2023-02-22T23:35:15.338Z,63.75
2023-02-22T23:37:42.855Z,65.97
2023-02-22T23:40:17.421Z,68.35
2023-02-22T23:42:57.611Z,72.10
2023-02-22T23:45:24.867Z,74.93
2023-02-22T23:47:57.247Z,61.08
2023-02-22T23:50:26.598Z,63.90
2023-02-22T23:52:56.983Z,79.82
2023-02-22T23:55:26.303Z,81.50
2023-02-22T23:57:59.239Z,79.50
